createdAt,value
2022-12-22T00:01:06.791Z,100.00
2022-12-22T00:03:53.372Z,100.00
2022-12-22T00:06:39.833Z,100.00
2022-12-22T00:09:26.665Z,100.00
2022-12-22T00:12:12.881Z,100.00
2022-12-22T00:14:59.323Z,100.00
2022-12-22T00:17:46.961Z,100.00
2022-12-22T00:20:39.106Z,100.00
2022-12-22T00:23:28.293Z,100.00
2022-12-22T00:26:15.183Z,100.00
2022-12-22T00:29:02.288Z,100.00
2022-12-22T00:31:49.123Z,100.00
2022-12-22T00:34:39.678Z,100.00
2022-12-22T00:37:30.863Z,99.86
2022-12-22T00:40:20.644Z,99.49
2022-12-22T00:43:09.013Z,99.49
2022-12-22T00:45:55.651Z,99.78
2022-12-22T00:48:43.998Z,99.50
2022-12-22T00:51:30.667Z,99.52
2022-12-22T00:54:17.173Z,99.27
2022-12-22T00:57:03.551Z,99.35
2022-12-22T00:59:50.372Z,99.63
2022-12-22T01:02:36.581Z,99.34
2022-12-22T01:05:23.592Z,99.50
2022-12-22T01:08:09.763Z,99.05
2022-12-22T01:10:56.547Z,99.74
2022-12-22T01:13:42.650Z,99.47
2022-12-22T01:16:30.735Z,99.71
2022-12-22T01:19:16.926Z,99.32
2022-12-22T01:22:03.515Z,99.35
2022-12-22T01:24:49.677Z,99.29
2022-12-22T01:27:35.986Z,99.85
2022-12-22T01:30:23.115Z,99.52
2022-12-22T01:33:09.590Z,99.74
2022-12-22T01:35:55.540Z,99.48
2022-12-22T01:38:42.457Z,99.25
2022-12-22T01:41:32.287Z,99.00
2022-12-22T01:44:18.785Z,99.43
2022-12-22T01:47:05.591Z,99.13
2022-12-22T01:49:58.403Z,99.62
2022-12-22T01:52:52.477Z,99.05
2022-12-22T01:55:41.486Z,99.12
2022-12-22T01:58:35.240Z,99.04
2022-12-22T02:01:21.692Z,98.88
2022-12-22T02:04:08.134Z,98.68
2022-12-22T02:07:00.313Z,98.55
2022-12-22T02:10:02.282Z,98.74
2022-12-22T02:13:17.772Z,98.40
2022-12-22T02:16:08.717Z,98.49
2022-12-22T02:19:01.707Z,98.50
2022-12-22T02:21:53.726Z,98.44
2022-12-22T02:24:49.510Z,98.73
2022-12-22T02:27:36.713Z,98.66
2022-12-22T02:30:27.515Z,98.95
2022-12-22T02:33:13.902Z,98.70
2022-12-22T02:36:22.338Z,98.57
2022-12-22T02:39:16.817Z,98.70
2022-12-22T02:42:17.598Z,98.32
2022-12-22T02:45:26.776Z,98.22
2022-12-22T02:48:54.314Z,98.58
2022-12-22T02:51:44.151Z,98.35
2022-12-22T02:54:31.252Z,98.04
2022-12-22T02:57:17.902Z,97.80
2022-12-22T03:00:04.084Z,97.68
2022-12-22T03:02:50.831Z,98.07
2022-12-22T03:05:36.895Z,98.20
2022-12-22T03:08:23.281Z,97.84
2022-12-22T03:11:09.697Z,98.05
2022-12-22T03:13:55.880Z,97.80
2022-12-22T03:16:42.031Z,98.13
2022-12-22T03:19:28.606Z,98.17
2022-12-22T03:22:14.935Z,97.43
2022-12-22T03:25:01.207Z,97.36
2022-12-22T03:27:28.957Z,97.56
2022-12-22T03:29:59.190Z,97.97
2022-12-22T03:32:26.784Z,97.72
2022-12-22T03:34:54.337Z,98.23
2022-12-22T03:37:22.163Z,97.68
2022-12-22T03:39:50.024Z,98.22
2022-12-22T03:42:35.797Z,98.16
2022-12-22T03:45:22.055Z,97.77
2022-12-22T03:47:49.671Z,97.34
2022-12-22T03:50:18.310Z,96.98
2022-12-22T03:52:45.799Z,97.42
2022-12-22T03:55:13.424Z,97.11
2022-12-22T03:57:41.268Z,97.16
2022-12-22T04:00:10.436Z,97.55
2022-12-22T04:02:39.644Z,96.68
2022-12-22T04:05:08.110Z,97.14
2022-12-22T04:07:35.648Z,97.10
2022-12-22T04:10:22.715Z,96.72
2022-12-22T04:12:56.916Z,96.72
2022-12-22T04:15:27.728Z,96.16
2022-12-22T04:17:55.898Z,96.35
2022-12-22T04:20:26.827Z,96.37
2022-12-22T04:22:57.774Z,96.06
2022-12-22T04:25:26.520Z,97.04
2022-12-22T04:27:54.146Z,96.87
2022-12-22T04:30:21.788Z,96.46
2022-12-22T04:32:49.635Z,96.08
2022-12-22T04:35:17.137Z,96.05
2022-12-22T04:37:44.722Z,95.84
2022-12-22T04:40:12.793Z,95.69
2022-12-22T04:42:40.580Z,95.78
2022-12-22T04:45:08.564Z,95.58
2022-12-22T04:47:36.407Z,95.30
2022-12-22T04:50:05.631Z,95.18
2022-12-22T04:52:33.271Z,94.66
2022-12-22T04:55:01.087Z,95.23
2022-12-22T04:57:28.637Z,95.33
2022-12-22T04:59:56.401Z,95.11
2022-12-22T05:02:24.388Z,95.35
2022-12-22T05:04:52.068Z,95.38
2022-12-22T05:07:20.736Z,95.15
2022-12-22T05:09:48.639Z,95.69
2022-12-22T05:12:34.686Z,95.63
2022-12-22T05:15:02.533Z,95.61
2022-12-22T05:17:30.166Z,95.64
2022-12-22T05:19:57.813Z,95.42
2022-12-22T05:22:25.726Z,95.27
2022-12-22T05:24:53.336Z,95.17
2022-12-22T05:27:20.895Z,95.45
2022-12-22T05:29:48.734Z,95.50
2022-12-22T05:32:16.273Z,95.43
2022-12-22T05:34:43.873Z,95.19
2022-12-22T05:37:11.698Z,95.44
2022-12-22T05:39:39.222Z,95.87
2022-12-22T05:42:06.702Z,96.05
2022-12-22T05:44:34.479Z,95.50
2022-12-22T05:47:02.041Z,95.05
2022-12-22T05:49:29.662Z,95.35
2022-12-22T05:51:59.855Z,95.23
2022-12-22T05:54:27.497Z,95.76
2022-12-22T05:56:55.052Z,95.16
2022-12-22T05:59:22.893Z,95.36
2022-12-22T06:01:50.488Z,95.99
2022-12-22T06:04:18.608Z,95.62
2022-12-22T06:06:46.199Z,95.56
2022-12-22T06:09:14.051Z,95.25
2022-12-22T06:11:41.882Z,94.79
2022-12-22T06:14:09.573Z,95.14
2022-12-22T06:16:37.108Z,95.03
2022-12-22T06:19:04.986Z,94.79
2022-12-22T06:21:32.710Z,95.12
2022-12-22T06:24:00.351Z,95.20
2022-12-22T06:26:28.105Z,95.17
2022-12-22T06:28:55.737Z,95.00
2022-12-22T06:31:24.137Z,94.62
2022-12-22T06:33:52.031Z,94.37
2022-12-22T06:36:19.595Z,94.38
2022-12-22T06:38:47.234Z,94.17
2022-12-22T06:41:15.072Z,94.12
2022-12-22T06:43:42.634Z,93.91
2022-12-22T06:46:10.171Z,93.89
2022-12-22T06:48:38.014Z,93.52
2022-12-22T06:51:06.181Z,94.11
2022-12-22T06:53:33.691Z,93.88
2022-12-22T06:56:01.489Z,93.96
2022-12-22T06:58:29.204Z,94.37
2022-12-22T07:00:56.979Z,94.10
2022-12-22T07:03:24.935Z,94.29
2022-12-22T07:05:52.901Z,94.27
2022-12-22T07:08:20.411Z,94.38
2022-12-22T07:11:00.861Z,94.31
2022-12-22T07:13:34.075Z,94.52
2022-12-22T07:16:03.109Z,94.10
2022-12-22T07:18:33.019Z,94.25
2022-12-22T07:21:02.713Z,93.83
2022-12-22T07:23:31.160Z,93.63
2022-12-22T07:25:59.360Z,93.90
2022-12-22T07:28:27.191Z,94.50
2022-12-22T07:30:55.615Z,94.10
2022-12-22T07:33:23.433Z,93.69
2022-12-22T07:36:07.837Z,94.29
2022-12-22T07:38:38.236Z,94.00
2022-12-22T07:41:27.339Z,94.10
2022-12-22T07:43:56.878Z,93.98
2022-12-22T07:46:26.691Z,94.43
2022-12-22T07:49:13.010Z,94.09
2022-12-22T07:51:44.170Z,94.03
2022-12-22T07:54:13.893Z,93.18
2022-12-22T07:56:42.817Z,92.64
2022-12-22T07:59:10.480Z,92.19
2022-12-22T08:01:38.508Z,91.39
2022-12-22T08:04:06.590Z,90.88
2022-12-22T08:06:34.606Z,90.69
2022-12-22T08:09:03.358Z,91.05
2022-12-22T08:11:31.207Z,91.08
2022-12-22T08:14:01.710Z,90.80
2022-12-22T08:16:29.845Z,90.52
2022-12-22T08:18:57.735Z,90.24
2022-12-22T08:21:25.277Z,89.96
2022-12-22T08:23:52.866Z,89.60
2022-12-22T08:26:25.775Z,89.35
2022-12-22T08:29:05.347Z,89.21
2022-12-22T08:31:33.667Z,88.94
2022-12-22T08:34:04.293Z,88.58
2022-12-22T08:36:34.484Z,88.08
2022-12-22T08:39:02.352Z,87.71
2022-12-22T08:41:48.655Z,87.54
2022-12-22T08:44:24.006Z,87.34
2022-12-22T08:46:52.308Z,87.28
2022-12-22T08:49:20.244Z,87.28
2022-12-22T08:51:48.190Z,87.28
2022-12-22T08:54:16.416Z,87.35
2022-12-22T08:56:44.436Z,86.67
2022-12-22T08:59:12.771Z,86.96
2022-12-22T09:01:47.318Z,86.35
2022-12-22T09:04:17.029Z,85.97
2022-12-22T09:06:45.390Z,86.00
2022-12-22T09:09:13.735Z,86.32
2022-12-22T09:11:41.653Z,86.38
2022-12-22T09:14:10.216Z,86.63
2022-12-22T09:16:38.386Z,86.76
2022-12-22T09:19:06.912Z,86.66
2022-12-22T09:21:35.622Z,86.39
2022-12-22T09:24:04.659Z,86.50
2022-12-22T09:26:32.505Z,86.54
2022-12-22T09:29:00.528Z,86.59
2022-12-22T09:31:29.002Z,86.54
2022-12-22T09:33:57.444Z,86.38
2022-12-22T09:36:27.811Z,86.05
2022-12-22T09:38:55.375Z,86.00
2022-12-22T09:41:34.933Z,85.85
2022-12-22T09:44:10.929Z,85.84
2022-12-22T09:46:39.289Z,85.53
2022-12-22T09:49:07.269Z,85.83
2022-12-22T09:51:41.942Z,85.62
2022-12-22T09:54:11.861Z,85.21
2022-12-22T09:56:39.780Z,85.32
2022-12-22T09:59:12.530Z,85.45
2022-12-22T10:01:43.237Z,85.57
2022-12-22T10:04:32.777Z,85.51
2022-12-22T10:07:12.299Z,85.74
2022-12-22T10:09:55.500Z,86.08
2022-12-22T10:12:25.437Z,86.54
2022-12-22T10:14:55.182Z,86.00
2022-12-22T10:17:32.167Z,85.82
2022-12-22T10:20:19.106Z,87.09
2022-12-22T10:22:54.594Z,86.50
2022-12-22T10:28:46.036Z,87.30
2022-12-22T10:31:22.915Z,87.04
2022-12-22T10:33:52.593Z,86.51
2022-12-22T10:36:40.655Z,85.95
2022-12-22T10:39:10.598Z,87.03
2022-12-22T10:41:42.613Z,86.87
2022-12-22T10:44:19.418Z,86.83
2022-12-22T10:46:49.799Z,87.11
2022-12-22T10:49:24.084Z,86.82
2022-12-22T10:52:15.243Z,85.93
2022-12-22T10:54:44.937Z,85.82
2022-12-22T10:57:16.646Z,86.11
2022-12-22T10:59:51.254Z,85.72
2022-12-22T11:02:26.142Z,84.81
2022-12-22T11:04:55.395Z,84.81
2022-12-22T11:07:23.822Z,84.60
2022-12-22T11:09:52.267Z,85.16
2022-12-22T11:12:28.629Z,84.71
2022-12-22T11:15:03.608Z,85.76
2022-12-22T11:17:33.990Z,85.91
2022-12-22T11:20:39.798Z,84.31
2022-12-22T11:23:16.488Z,84.70
2022-12-22T11:25:56.688Z,84.10
2022-12-22T11:28:28.611Z,83.56
2022-12-22T11:31:08.542Z,83.26
2022-12-22T11:33:45.088Z,83.07
2022-12-22T11:36:26.827Z,82.94
2022-12-22T11:39:00.725Z,82.94
2022-12-22T11:41:43.163Z,83.17
2022-12-22T11:44:48.378Z,83.92
2022-12-22T11:47:24.920Z,83.09
2022-12-22T11:50:58.199Z,82.74
2022-12-22T11:53:23.287Z,82.32
2022-12-22T11:56:23.907Z,81.80
2022-12-22T11:58:58.163Z,82.15
2022-12-22T12:01:57.570Z,82.12
2022-12-22T12:04:47.119Z,82.28
2022-12-22T12:07:45.885Z,82.43
2022-12-22T12:10:30.716Z,83.06
2022-12-22T12:13:27.639Z,83.49
2022-12-22T12:16:22.875Z,84.11
2022-12-22T12:19:29.030Z,83.25
2022-12-22T12:21:58.715Z,82.59
2022-12-22T12:24:51.486Z,82.68
2022-12-22T12:27:56.180Z,82.91
2022-12-22T12:30:40.142Z,83.20
2022-12-22T12:33:18.650Z,83.72
2022-12-22T12:35:46.473Z,83.53
2022-12-22T12:38:39.813Z,83.79
2022-12-22T12:41:36.678Z,83.83
2022-12-22T12:44:05.843Z,84.11
2022-12-22T12:46:52.501Z,84.28
2022-12-22T12:49:35.415Z,84.64
2022-12-22T12:52:09.961Z,84.91
2022-12-22T12:54:42.298Z,85.37
2022-12-22T12:57:12.555Z,84.80
2022-12-22T12:59:40.757Z,84.82
2022-12-22T13:02:27.203Z,84.94
2022-12-22T13:05:01.379Z,85.50
2022-12-22T13:08:37.122Z,85.51
2022-12-22T13:11:10.820Z,85.80
2022-12-22T13:13:39.829Z,85.90
2022-12-22T13:16:07.797Z,85.91
2022-12-22T13:18:35.379Z,86.06
2022-12-22T13:21:50.919Z,86.15
2022-12-22T13:26:45.004Z,86.76
2022-12-22T13:29:19.574Z,86.78
2022-12-22T13:31:50.013Z,87.00
2022-12-22T13:37:43.527Z,87.23
2022-12-22T13:40:17.960Z,87.39
2022-12-22T13:43:02.284Z,87.57
2022-12-22T13:45:42.935Z,87.94
2022-12-22T13:48:17.207Z,88.39
2022-12-22T13:51:08.746Z,88.56
2022-12-22T13:56:36.919Z,88.74
2022-12-22T13:59:05.315Z,89.46
2022-12-22T14:01:33.520Z,89.20
2022-12-22T14:04:04.471Z,89.21
2022-12-22T14:06:37.486Z,89.26
2022-12-22T14:09:15.452Z,89.26
2022-12-22T14:11:51.084Z,89.50
2022-12-22T14:14:23.762Z,89.57
2022-12-22T14:16:52.510Z,89.78
2022-12-22T14:19:21.544Z,90.04
2022-12-22T14:21:54.978Z,90.19
2022-12-22T14:24:25.658Z,90.48
2022-12-22T14:26:53.538Z,90.93
2022-12-22T14:29:25.436Z,90.61
2022-12-22T14:32:01.935Z,90.65
2022-12-22T14:34:31.565Z,90.68
2022-12-22T14:37:01.111Z,90.90
2022-12-22T14:39:31.562Z,91.00
2022-12-22T14:42:04.576Z,91.16
2022-12-22T14:44:34.434Z,91.31
2022-12-22T14:47:12.043Z,91.45
2022-12-22T14:49:48.677Z,91.46
2022-12-22T14:52:21.892Z,91.56
2022-12-22T14:54:51.131Z,91.63
2022-12-22T14:57:36.237Z,91.80
2022-12-22T15:00:08.304Z,91.69
2022-12-22T15:02:40.320Z,91.67
2022-12-22T15:05:23.938Z,91.97
2022-12-22T15:08:05.414Z,91.86
2022-12-22T15:10:42.138Z,91.79
2022-12-22T15:13:23.255Z,92.02
2022-12-22T15:15:51.865Z,92.20
2022-12-22T15:18:24.792Z,92.15
2022-12-22T15:20:52.839Z,92.48
2022-12-22T15:23:20.663Z,92.49
2022-12-22T15:25:48.191Z,92.47
2022-12-22T15:28:16.120Z,92.56
2022-12-22T15:30:44.287Z,92.55
2022-12-22T15:33:17.208Z,92.54
2022-12-22T15:35:45.495Z,92.50
2022-12-22T15:38:15.496Z,92.51
2022-12-22T15:40:43.666Z,92.52
2022-12-22T15:45:59.484Z,92.38
2022-12-22T15:48:33.125Z,92.39
2022-12-22T15:51:03.020Z,92.47
2022-12-22T15:53:31.994Z,92.47
2022-12-22T15:55:59.683Z,92.66
2022-12-22T15:58:32.699Z,92.64
2022-12-22T16:01:00.616Z,92.72
2022-12-22T16:03:28.656Z,92.68
2022-12-22T16:05:56.402Z,92.69
2022-12-22T16:08:32.603Z,92.71
2022-12-22T16:11:00.787Z,92.74
2022-12-22T16:13:28.801Z,92.72
2022-12-22T16:15:57.890Z,93.17
2022-12-22T16:18:26.195Z,92.98
2022-12-22T16:20:54.086Z,93.10
2022-12-22T16:23:24.490Z,93.14
2022-12-22T16:26:00.684Z,93.71
2022-12-22T16:28:29.835Z,93.34
2022-12-22T16:30:57.713Z,93.31
2022-12-22T16:33:25.349Z,93.36
2022-12-22T16:35:53.192Z,93.42
2022-12-22T16:38:21.185Z,93.55
2022-12-22T16:40:51.103Z,93.50
2022-12-22T16:46:25.272Z,93.48
2022-12-22T16:48:55.507Z,93.46
2022-12-22T16:51:25.880Z,93.75
2022-12-22T16:53:54.225Z,95.62
2022-12-22T16:56:26.655Z,96.77
2022-12-22T16:58:54.764Z,96.57
2022-12-22T17:01:32.277Z,95.89
2022-12-22T17:04:06.992Z,95.50
2022-12-22T17:06:34.847Z,95.36
2022-12-22T17:09:04.912Z,94.98
2022-12-22T17:11:34.481Z,94.98
2022-12-22T17:14:08.167Z,94.84
2022-12-22T17:16:35.933Z,94.80
2022-12-22T17:19:05.552Z,94.90
2022-12-22T17:21:33.178Z,97.23
2022-12-22T17:24:04.414Z,97.12
2022-12-22T17:26:33.813Z,96.18
2022-12-22T17:29:01.898Z,95.64
2022-12-22T17:31:29.836Z,95.44
2022-12-22T17:33:57.853Z,95.53
2022-12-22T17:36:28.281Z,95.35
2022-12-22T17:38:56.182Z,95.46
2022-12-22T17:41:23.969Z,95.55
2022-12-22T17:43:51.587Z,95.57
2022-12-22T17:46:20.428Z,95.73
2022-12-22T17:48:48.684Z,95.46
2022-12-22T17:51:18.814Z,96.03
2022-12-22T17:53:46.755Z,96.19
2022-12-22T17:56:20.527Z,95.86
2022-12-22T17:58:48.477Z,95.66
2022-12-22T18:01:23.468Z,95.68
2022-12-22T18:03:51.579Z,95.54
2022-12-22T18:06:21.224Z,95.50
2022-12-22T18:08:49.267Z,96.06
2022-12-22T18:11:17.253Z,95.66
2022-12-22T18:13:45.145Z,95.81
2022-12-22T18:16:17.199Z,95.99
2022-12-22T18:18:46.031Z,96.68
2022-12-22T18:21:19.589Z,96.95
2022-12-22T18:23:50.635Z,97.13
2022-12-22T18:26:36.406Z,97.24
2022-12-22T18:29:04.712Z,97.61
2022-12-22T18:31:32.597Z,97.02
2022-12-22T18:34:00.140Z,96.60
2022-12-22T18:36:31.390Z,96.41
2022-12-22T18:39:00.848Z,96.20
2022-12-22T18:41:31.859Z,96.09
2022-12-22T18:43:59.309Z,96.02
2022-12-22T18:46:26.968Z,95.99
2022-12-22T18:48:56.718Z,95.99
2022-12-22T18:51:28.117Z,95.97
2022-12-22T18:53:57.233Z,96.42
2022-12-22T18:56:24.739Z,97.50
2022-12-22T18:58:52.381Z,97.49
2022-12-22T19:01:24.998Z,97.74
2022-12-22T19:03:55.342Z,97.03
2022-12-22T19:06:23.871Z,97.70
2022-12-22T19:08:51.790Z,98.03
2022-12-22T19:11:24.616Z,97.13
2022-12-22T19:13:52.788Z,96.97
2022-12-22T19:16:26.080Z,96.75
2022-12-22T19:18:54.338Z,96.61
2022-12-22T19:21:21.987Z,96.53
2022-12-22T19:23:49.735Z,96.43
2022-12-22T19:26:21.934Z,96.40
2022-12-22T19:28:51.975Z,96.88
2022-12-22T19:31:31.847Z,96.59
2022-12-22T19:34:01.663Z,96.57
2022-12-22T19:36:30.616Z,96.55
2022-12-22T19:39:03.819Z,98.04
2022-12-22T19:41:49.797Z,98.44
2022-12-22T19:44:20.389Z,97.57
2022-12-22T19:46:48.553Z,97.51
2022-12-22T19:49:18.155Z,97.39
2022-12-22T19:51:46.015Z,97.41
2022-12-22T19:54:14.837Z,97.45
2022-12-22T19:56:45.278Z,97.47
2022-12-22T19:59:39.800Z,97.65
2022-12-22T20:02:25.401Z,98.68
2022-12-22T20:04:54.095Z,98.91
2022-12-22T20:07:23.929Z,98.09
2022-12-22T20:09:52.753Z,97.79
2022-12-22T20:12:30.783Z,97.80
2022-12-22T20:14:58.794Z,97.77
2022-12-22T20:17:26.689Z,97.85
2022-12-22T20:19:55.170Z,98.53
2022-12-22T20:22:23.429Z,99.49
2022-12-22T20:24:51.906Z,99.06
2022-12-22T20:27:23.524Z,98.58
2022-12-22T20:29:56.824Z,98.40
2022-12-22T20:32:27.948Z,98.38
2022-12-22T20:34:56.261Z,99.58
2022-12-22T20:37:28.728Z,99.90
2022-12-22T20:40:01.320Z,99.83
2022-12-22T20:42:28.882Z,99.90
2022-12-22T20:45:03.161Z,100.00
2022-12-22T20:47:33.553Z,100.00
2022-12-22T20:50:18.497Z,100.00
2022-12-22T20:52:46.398Z,100.00
2022-12-22T20:55:16.048Z,100.00
2022-12-22T20:57:45.248Z,100.00
2022-12-22T21:00:25.932Z,100.00
2022-12-22T21:02:54.506Z,100.00
2022-12-22T21:05:22.155Z,100.00
2022-12-22T21:07:50.058Z,100.00
2022-12-22T21:10:24.395Z,100.00
2022-12-22T21:12:52.177Z,100.00
2022-12-22T21:15:22.546Z,100.00
2022-12-22T21:17:57.747Z,100.00
2022-12-22T21:20:29.065Z,100.00
2022-12-22T21:22:56.625Z,100.00
2022-12-22T21:25:24.839Z,100.00
2022-12-22T21:27:52.864Z,100.00
2022-12-22T21:30:25.603Z,100.00
2022-12-22T21:32:53.523Z,100.00
2022-12-22T21:35:27.232Z,100.00
2022-12-22T21:37:55.630Z,100.00
2022-12-22T21:40:25.479Z,100.00
2022-12-22T21:42:53.400Z,100.00
2022-12-22T21:45:23.890Z,100.00
2022-12-22T21:47:51.568Z,100.00
2022-12-22T21:50:28.343Z,100.00
2022-12-22T21:52:56.630Z,100.00
2022-12-22T21:55:30.982Z,100.00
2022-12-22T21:57:59.273Z,100.00
2022-12-22T22:00:29.100Z,100.00
2022-12-22T22:02:57.607Z,100.00
2022-12-22T22:05:29.196Z,100.00
2022-12-22T22:07:57.938Z,100.00
2022-12-22T22:10:28.930Z,100.00
2022-12-22T22:12:57.278Z,100.00
2022-12-22T22:15:26.686Z,100.00
2022-12-22T22:17:55.101Z,100.00
2022-12-22T22:20:30.371Z,100.00
2022-12-22T22:22:59.167Z,100.00
2022-12-22T22:25:27.502Z,100.00
2022-12-22T22:27:59.427Z,100.00
2022-12-22T22:30:27.536Z,100.00
2022-12-22T22:32:55.781Z,100.00
2022-12-22T22:35:24.676Z,100.00
2022-12-22T22:37:52.492Z,100.00
2022-12-22T22:40:22.246Z,100.00
2022-12-22T22:42:50.147Z,100.00
2022-12-22T22:45:23.227Z,100.00
2022-12-22T22:47:52.304Z,100.00
2022-12-22T22:50:21.582Z,100.00
2022-12-22T22:52:49.441Z,100.00
2022-12-22T22:55:17.270Z,100.00
2022-12-22T22:57:45.077Z,100.00
2022-12-22T23:00:16.397Z,100.00
2022-12-22T23:02:44.584Z,100.00
2022-12-22T23:05:17.109Z,100.00
2022-12-22T23:07:46.317Z,100.00
2022-12-22T23:10:15.751Z,100.00
2022-12-22T23:12:43.351Z,100.00
2022-12-22T23:15:11.095Z,100.00
2022-12-22T23:17:39.153Z,100.00
2022-12-22T23:20:10.550Z,100.00
2022-12-22T23:22:38.862Z,100.00
2022-12-22T23:25:06.951Z,100.00
2022-12-22T23:27:34.429Z,100.00
2022-12-22T23:30:02.205Z,100.00
2022-12-22T23:32:31.080Z,100.00
2022-12-22T23:34:58.593Z,100.00
2022-12-22T23:37:26.498Z,100.00
2022-12-22T23:39:54.600Z,100.00
2022-12-22T23:42:23.638Z,100.00
2022-12-22T23:44:51.269Z,100.00
2022-12-22T23:47:19.071Z,100.00
2022-12-22T23:49:47.384Z,100.00
2022-12-22T23:52:14.864Z,100.00
2022-12-22T23:54:42.718Z,100.00
2022-12-22T23:57:10.284Z,100.00
2022-12-22T23:59:37.881Z,100.00
